EDLN 200120Z AUTO VRB01KT 7000 // OVC030/// 14/13 Q1022 EDLN 200050Z AUTO 00000KT 7000 // FEW029/// BKN084/// 14/13 Q1022 EDLN 200020Z AUTO 32004KT 8000 // NCD 15/13 Q1022 EDLN 192350Z AUTO 33004KT 9999 // FEW030/// 15/13 Q1022 EDLN 192320Z AUTO 33004KT 9999 // BKN028/// 16/13 Q1022 EDLN 192250Z AUTO 33004KT 9999 // FEW014/// OVC028/// 17/14 Q1022 EDLN 192220Z AUTO 31006KT 9999 // BKN027/// 17/14 Q1022 EDLN 192150Z AUTO 30007KT 9999 // BKN028/// 17/14 Q1021 EDLN 192120Z AUTO 30008KT 9999 // OVC026/// 18/14 Q1021 EDLN 192050Z AUTO 29007KT 9999 // BKN024/// BKN028/// 18/15 Q1021 EDLN 192020Z AUTO 30006KT 9999 // FEW020/// BKN024/// 19/16 Q1021 EDLN 191950Z AUTO VRB02KT 9999 // FEW020/// SCT023/// BKN031/// 18/17 Q1020 EDLN 191920Z AUTO VRB02KT 9999 // FEW031/// 18/16 Q1020 EDLN 191850Z VRB02KT CAVOK 19/16 Q1020 EDLN 191820Z 22003KT 170V270 9999 FEW034 21/16 Q1020 EDLN 191750Z 23004KT 180V270 9999 FEW025 21/17 Q1020 EDLN 191720Z 23004KT 180V300 CAVOK 21/16 Q1019 EDLN 191650Z 25003KT 190V320 CAVOK 21/17 Q1019 EDLN 191620Z 23004KT 190V290 CAVOK 21/17 Q1019 EDLN 191550Z 20003KT 150V240 9999 FEW046 19/17 Q1019 EDLN 191520Z 19003KT 150V230 CAVOK 17/16 Q1019 EDLN 191450Z 08003KT 360V110 9999 FEW011 17/16 Q1018 EDLN 191420Z 32009KT 9999 FEW011 18/16 Q1019 EDLN 191350Z 32011KT 9999 FEW037 18/17 Q1018 RERA EDLN 191320Z 29009G19KT 220V330 4400 RA FEW015 BKN046CB 17/17 Q1018 RETS EDLN 191250Z 15007KT 110V190 9999 VCTS SCT035CB 26/16 Q1015 EDLN 191220Z 16008KT 110V240 CAVOK 28/16 Q1015 EDLN 191150Z 16008KT 110V210 CAVOK 28/16 Q1016 EDLN 191120Z 15009KT 110V190 9999 FEW091TCU 28/15 Q1016 EDLN 191050Z 13008KT CAVOK 27/15 Q1016 EDLN 191020Z 12010KT 100V160 CAVOK 26/15 Q1016 EDLN 190950Z 13008KT 100V160 CAVOK 26/16 Q1016 EDLN 190920Z 13006KT 100V180 CAVOK 25/16 Q1017 EDLN 190850Z 13006KT CAVOK 24/16 Q1017 EDLN 190820Z 12007KT CAVOK 22/15 Q1017 EDLN 190750Z 13006KT CAVOK 22/14 Q1018 EDLN 190720Z 11005KT CAVOK 23/14 Q1018 EDLN 190650Z 12004KT 090V150 CAVOK 21/15 Q1018 EDLN 190620Z 11003KT CAVOK 21/15 Q1018 EDLN 190550Z 09005KT CAVOK 20/15 Q1018 EDLN 190520Z AUTO 33004KT 250V040 9999 // BKN100/// 19/13 Q1018 EDLN 190450Z AUTO 14004KT 110V230 9999 // SCT099/// SCT140/// OVC160/// 19/13 Q1017 EDLN 190420Z AUTO 13004KT 9999 // BKN160/// 18/13 Q1017 EDLN 190350Z AUTO 13004KT 100V160 9999 // FEW250/// 17/13 Q1017 EDLN 190320Z AUTO 11005KT 9999 // NCD 17/13 Q1017 EDLN 190250Z AUTO 12004KT 9999 // NCD 17/13 Q1017 EDLN 190220Z AUTO 12004KT 9999 // NCD 16/13 Q1017 EDLN 190150Z AUTO 12004KT 9999 // NCD 17/13 Q1017 EDLN 190120Z AUTO 12004KT 9999 // NCD 17/13 Q1017 EDLN 190050Z AUTO 12004KT 9999 // NCD 16/13 Q1018 EDLN 190020Z AUTO 14003KT 9999 // NCD 17/13 Q1018 EDLN 182350Z AUTO 14003KT 9999 // NCD 17/14 Q1018 EDLN 182320Z AUTO 11005KT 9999 // NCD 18/15 Q1018 EDLN 182250Z AUTO 10003KT 9999 // NCD 17/16 Q1018 EDLN 182220Z AUTO VRB02KT 9999 // FEW110/// 18/16 Q1019 EDLN 182150Z AUTO VRB02KT 9999 // NCD 19/16 Q1019 EDLN 182120Z AUTO VRB02KT 9999 // NCD 20/16 Q1019 EDLN 182050Z AUTO 01003KT 9999 // NCD 22/16 Q1019 EDLN 182020Z AUTO 01004KT 9999 // NCD 23/16 Q1019 EDLN 181950Z AUTO 36004KT 9999 // NCD 23/16 Q1019 EDLN 181920Z AUTO 34003KT 9999 // NCD 24/16 Q1019 EDLN 181850Z AUTO 35005KT 9999 // NCD 25/16 Q1019 EDLN 181820Z 33007KT CAVOK 26/16 Q1019 EDLN 181750Z 31009KT CAVOK 27/15 Q1019 EDLN 181720Z 31009KT CAVOK 27/15 Q1019 EDLN 181650Z 33003KT CAVOK 28/16 Q1019 EDLN 181620Z VRB01KT CAVOK 27/17 Q1019 EDLN 181550Z VRB01KT CAVOK 27/19 Q1019 EDLN 181520Z VRB02KT CAVOK 29/13 Q1019 EDLN 181450Z 05003KT CAVOK 29/13 Q1019 EDLN 181420Z VRB02KT CAVOK 28/15 Q1019

METAR Messwerte "MONCHENGLADBACH" EDLN

Zurück zur Übersicht

Ortsname
Ländercode / m ü. NN
Zeit Temperatur Taupunkt Rel.
Luftfeuchte
Luftdruck:
Altimeter
NN
Station
Wind in Beaufort
(Knoten)
Sichtweite
(Meter)
Wolken
(Meter über Grund)
Wettererscheinung
MONCHENGLADBACH
DE 38
Fr 20.05. 03:20141394 %1022
1022
1017
Uml 1 (1)7000Bedeckt (910) 
MONCHENGLADBACH
DE 38
Fr 20.05. 02:50141394 %1022
1022
1017
Windstill7000Stark bewölkt (2600)
Leicht bewölkt (880)
 
MONCHENGLADBACH
DE 38
Fr 20.05. 02:20151388 %1022
1022
1017
NW 2 (4)8000  
MONCHENGLADBACH
DE 38
Fr 20.05. 01:50151388 %1022
1022
1017
NNW 2 (4)>= 10000Leicht bewölkt (910) 
MONCHENGLADBACH
DE 38
Fr 20.05. 01:20161382 %1022
1022
1017
NNW 2 (4)>= 10000Stark bewölkt (850) 
MONCHENGLADBACH
DE 38
Fr 20.05. 00:50171482 %1022
1022
1017
NNW 2 (4)>= 10000Bedeckt (850)
Leicht bewölkt (430)
 
MONCHENGLADBACH
DE 38
Fr 20.05. 00:20171482 %1022
1022
1017
NW 2 (6)>= 10000Stark bewölkt (820) 
MONCHENGLADBACH
DE 38
Do 19.05. 23:50171482 %1021
1021
1016
WNW 3 (7)>= 10000Stark bewölkt (850) 
MONCHENGLADBACH
DE 38
Do 19.05. 23:20181477 %1021
1021
1016
WNW 3 (8)>= 10000Bedeckt (790) 
MONCHENGLADBACH
DE 38
Do 19.05. 22:50181583 %1021
1021
1016
WNW 3 (7)>= 10000Stark bewölkt (850)
Stark bewölkt (730)
 
MONCHENGLADBACH
DE 38
Do 19.05. 22:20191683 %1021
1021
1016
WNW 2 (6)>= 10000Stark bewölkt (730)
Leicht bewölkt (610)
 
MONCHENGLADBACH
DE 38
Do 19.05. 21:50181794 %1020
1020
1015
Uml 1 (2)>= 10000Stark bewölkt (940)
Wolkig (700)
Leicht bewölkt (610)
 
MONCHENGLADBACH
DE 38
Do 19.05. 21:20181688 %1020
1020
1015
Uml 1 (2)>= 10000Leicht bewölkt (940) 
MONCHENGLADBACH
DE 38
Do 19.05. 20:50191683 %1020
1020
1015
Uml 1 (2)>= 10000Nicht signifikant 
MONCHENGLADBACH
DE 38
Do 19.05. 20:20211673 %1020
1020
1015
SW 2 (3)
S - W
>= 10000Leicht bewölkt (1000) 
MONCHENGLADBACH
DE 38
Do 19.05. 19:50211778 %1020
1020
1015
SW 2 (4)
S - W
>= 10000Leicht bewölkt (760) 
MONCHENGLADBACH
DE 38
Do 19.05. 19:20211673 %1019
1019
1014
SW 2 (4)
S - WNW
>= 10000Nicht signifikant 
MONCHENGLADBACH
DE 38
Do 19.05. 18:50211778 %1019
1019
1014
WSW 2 (3)
S - NW
>= 10000Nicht signifikant 
MONCHENGLADBACH
DE 38
Do 19.05. 18:20211778 %1019
1019
1014
SW 2 (4)
S - WNW
>= 10000Nicht signifikant 
MONCHENGLADBACH
DE 38
Do 19.05. 17:50191788 %1019
1019
1014
SSW 2 (3)
SSO - WSW
>= 10000Leicht bewölkt (1400) 
MONCHENGLADBACH
DE 38
Do 19.05. 17:20171694 %1019
1019
1014
S 2 (3)
SSO - SW
>= 10000Nicht signifikant 
MONCHENGLADBACH
DE 38
Do 19.05. 16:50171694 %1018
1018
1013
O 2 (3)
N - OSO
>= 10000Leicht bewölkt (340) 
MONCHENGLADBACH
DE 38
Do 19.05. 16:20181688 %1019
1019
1014
NW 3 (9)>= 10000Leicht bewölkt (340) 
MONCHENGLADBACH
DE 38
Do 19.05. 15:50181794 %1018
1018
1013
NW 4 (11)>= 10000Leicht bewölkt (1100) 
MONCHENGLADBACH
DE 38
Do 19.05. 15:201717100 %1018
1018
1013
WNW 3 (9) - 5 (19)
SW - NNW
4400Stark bewölkt Cb (1400)
Leicht bewölkt (460)
Regen
MONCHENGLADBACH
DE 38
Do 19.05. 14:50261654 %1015
1015
1010
SSO 3 (7)
OSO - S
>= 10000Wolkig Cb (1100) 
MONCHENGLADBACH
DE 38
Do 19.05. 14:20281648 %1015
1015
1010
SSO 3 (8)
OSO - WSW
>= 10000Nicht signifikant 
MONCHENGLADBACH
DE 38
Do 19.05. 13:50281648 %1016
1016
1011
SSO 3 (8)
OSO - SSW
>= 10000Nicht signifikant 
MONCHENGLADBACH
DE 38
Do 19.05. 13:20281545 %1016
1016
1011
SSO 3 (9)
OSO - S
>= 10000Leicht bewölkt (2800) 
MONCHENGLADBACH
DE 38
Do 19.05. 12:50271548 %1016
1016
1011
SO 3 (8)>= 10000Nicht signifikant 
MONCHENGLADBACH
DE 38
Do 19.05. 12:20261551 %1016
1016
1011
OSO 3 (10)
O - SSO
>= 10000Nicht signifikant 
MONCHENGLADBACH
DE 38
Do 19.05. 11:50261654 %1016
1016
1011
SO 3 (8)
O - SSO
>= 10000Nicht signifikant 
MONCHENGLADBACH
DE 38
Do 19.05. 11:20251657 %1017
1017
1012
SO 2 (6)
O - S
>= 10000Nicht signifikant 
MONCHENGLADBACH
DE 38
Do 19.05. 10:50241661 %1017
1017
1012
SO 2 (6)>= 10000Nicht signifikant 
MONCHENGLADBACH
DE 38
Do 19.05. 10:20221565 %1017
1017
1012
OSO 3 (7)>= 10000Nicht signifikant 
MONCHENGLADBACH
DE 38
Do 19.05. 09:50221460 %1018
1018
1013
SO 2 (6)>= 10000Nicht signifikant 
MONCHENGLADBACH
DE 38
Do 19.05. 09:20231457 %1018
1018
1013
OSO 2 (5)>= 10000Nicht signifikant 
MONCHENGLADBACH
DE 38
Do 19.05. 08:50211569 %1018
1018
1013
OSO 2 (4)
O - SSO
>= 10000Nicht signifikant 
MONCHENGLADBACH
DE 38
Do 19.05. 08:20211569 %1018
1018
1013
OSO 2 (3)>= 10000Nicht signifikant 
MONCHENGLADBACH
DE 38
Do 19.05. 07:50201573 %1018
1018
1013
O 2 (5)>= 10000Nicht signifikant 
MONCHENGLADBACH
DE 38
Do 19.05. 07:20191368 %1018
1018
1013
NNW 2 (4)
WSW - NO
>= 10000Stark bewölkt (3000) 
MONCHENGLADBACH
DE 38
Do 19.05. 06:50191368 %1017
1017
1012
SO 2 (4)
OSO - SW
>= 10000Bedeckt (4900)
Wolkig (4300)
Wolkig (3000)
 
MONCHENGLADBACH
DE 38
Do 19.05. 06:20181373 %1017
1017
1012
SO 2 (4)>= 10000Stark bewölkt (4900) 
MONCHENGLADBACH
DE 38
Do 19.05. 05:50171377 %1017
1017
1012
SO 2 (4)
O - SSO
>= 10000Leicht bewölkt (7600) 
MONCHENGLADBACH
DE 38
Do 19.05. 05:20171377 %1017
1017
1012
OSO 2 (5)>= 10000  
MONCHENGLADBACH
DE 38
Do 19.05. 04:50171377 %1017
1017
1012
OSO 2 (4)>= 10000  
MONCHENGLADBACH
DE 38
Do 19.05. 04:20161382 %1017
1017
1012
OSO 2 (4)>= 10000  
MONCHENGLADBACH
DE 38
Do 19.05. 03:50171377 %1017
1017
1012
OSO 2 (4)>= 10000  
MONCHENGLADBACH
DE 38
Do 19.05. 03:20171377 %1017
1017
1012
OSO 2 (4)>= 10000  
MONCHENGLADBACH
DE 38
Do 19.05. 02:50161382 %1018
1018
1013
OSO 2 (4)>= 10000  
MONCHENGLADBACH
DE 38
Do 19.05. 02:20171377 %1018
1018
1013
SO 2 (3)>= 10000  
MONCHENGLADBACH
DE 38
Do 19.05. 01:50171482 %1018
1018
1013
SO 2 (3)>= 10000  
MONCHENGLADBACH
DE 38
Do 19.05. 01:20181583 %1018
1018
1013
OSO 2 (5)>= 10000  
MONCHENGLADBACH
DE 38
Do 19.05. 00:50171694 %1018
1018
1013
O 2 (3)>= 10000  
MONCHENGLADBACH
DE 38
Do 19.05. 00:20181688 %1019
1019
1014
Uml 1 (2)>= 10000Leicht bewölkt (3400) 
MONCHENGLADBACH
DE 38
Mi 18.05. 23:50191683 %1019
1019
1014
Uml 1 (2)>= 10000  
MONCHENGLADBACH
DE 38
Mi 18.05. 23:20201678 %1019
1019
1014
Uml 1 (2)>= 10000  
MONCHENGLADBACH
DE 38
Mi 18.05. 22:50221669 %1019
1019
1014
N 2 (3)>= 10000  
MONCHENGLADBACH
DE 38
Mi 18.05. 22:20231665 %1019
1019
1014
N 2 (4)>= 10000  
MONCHENGLADBACH
DE 38
Mi 18.05. 21:50231665 %1019
1019
1014
N 2 (4)>= 10000  
MONCHENGLADBACH
DE 38
Mi 18.05. 21:20241661 %1019
1019
1014
NNW 2 (3)>= 10000  
MONCHENGLADBACH
DE 38
Mi 18.05. 20:50251657 %1019
1019
1014
N 2 (5)>= 10000  
MONCHENGLADBACH
DE 38
Mi 18.05. 20:20261654 %1019
1019
1014
NNW 3 (7)>= 10000Nicht signifikant 
MONCHENGLADBACH
DE 38
Mi 18.05. 19:50271548 %1019
1019
1014
NW 3 (9)>= 10000Nicht signifikant 
MONCHENGLADBACH
DE 38
Mi 18.05. 19:20271548 %1019
1019
1014
NW 3 (9)>= 10000Nicht signifikant 
MONCHENGLADBACH
DE 38
Mi 18.05. 18:50281648 %1019
1019
1014
NNW 2 (3)>= 10000Nicht signifikant 
MONCHENGLADBACH
DE 38
Mi 18.05. 18:20271754 %1019
1019
1014
Uml 1 (1)>= 10000Nicht signifikant 
MONCHENGLADBACH
DE 38
Mi 18.05. 17:50271962 %1019
1019
1014
Uml 1 (1)>= 10000Nicht signifikant 
MONCHENGLADBACH
DE 38
Mi 18.05. 17:20291337 %1019
1019
1014
Uml 1 (2)>= 10000Nicht signifikant 
MONCHENGLADBACH
DE 38
Mi 18.05. 16:50291337 %1019
1019
1014
NO 2 (3)>= 10000Nicht signifikant 
MONCHENGLADBACH
DE 38
Mi 18.05. 16:20281545 %1019
1019
1014
Uml 1 (2)>= 10000Nicht signifikant 

Altimeter: Einstellung am Altimeter (Höhenmesser), die Höhe 0 muss auf diesen Luftdruckwert zeigen, damit das Gerät die Stationshöhe richtig anzeigt.

NN: Luftdruck reduziert auf "Normal Null", auf Meereshöhe, dieser von der Temperatur abhängige Wert wird bisweilen unkorrekt einfach als "Luftdruck" bezeichnet. Eigentlich nur eine fiktive Größe, die es erlaubt, Stationen auf unterschiedlichen Höhen miteinander zu vergleichen.

Station: Realer Luftdruck an der Station.